Hovedside
METAR-TAF:

METAR-TAF

Lufthavner :

Darwin, Australia

breddegrad: 12-24S, lengdegrad: 130-52E, høyde over havet: 31 m

Gjeldene værobservasjon

Denne rapporten ble laget for 38 minutter siden, klokken 02:00 UTC
Vind 15 kt fra Øst-sørøst
Temperatur 27°C
Luftfuktighet 18%
Trykk 1015 hPa
Sikt 10 km eller mer
ingen skyer under 1500 m og ingen bygeskyer

METAR: YPDN 230200Z 11015KT CAVOK 27/01 Q1015 NOSIG

Tid: 12:08 (02:38 UTC)

Varsel

Denne rapporten ble laget for 3 timer og 33 minutter siden, klokken 23:05 UTC
Varsel gyldig fra 23. klokken 00 UTC til 24. klokken 06 UTC
Vind 12 kt fra Øst-sørøst
Sikt 10 km eller mer
ingen skyer under 1500 m og ingen bygeskyer
Fra 23. klokken 0500 UTC
Vind 10 kt fra Nord-nordøst
Sikt 10 km eller mer
ingen skyer under 1500 m og ingen bygeskyer
Fra 23. klokken 1100 UTC
Vind 5 kt fra Sørøst
Sikt 10 km eller mer
ingen skyer under 1500 m og ingen bygeskyer

TAF: YPDN 222305Z 2300/2406 12012KT CAVOK FM230500 03010KT CAVOK FM231100 13005KT CAVOK

Værobservasjoner og værvarsel for over 4000 flyplasser (METAR- og TAF-rapporter).

Tilgjengelige stasjoner er representert av de røde og gule prikkene på kartet.

Hold musepekeren over prikken for å se navnet på stasjonen.

Klikk så for å se værobservasjoner og -varsler.

For å forandre kartet kan du klikke på den grønne knappen med svart kryss for å zoome inn, på den grønne knappen med strek for å zoome ut, eller på de grønne pilene for å se tilstøtende kart.


METAR-TAF: